createdAt,value
2022-09-05T00:02:26.180Z,99.00
2022-09-05T00:05:19.846Z,98.90
2022-09-05T00:08:19.948Z,99.00
2022-09-05T00:11:42.066Z,99.30
2022-09-05T00:15:15.247Z,99.30
2022-09-05T00:18:47.041Z,99.20
2022-09-05T00:24:22.715Z,99.40
2022-09-05T00:24:43.550Z,99.70
2022-09-05T00:27:45.742Z,99.60
2022-09-05T00:31:50.908Z,99.40
2022-09-05T00:33:38.768Z,99.30
2022-09-05T00:36:44.168Z,99.40
2022-09-05T00:39:28.123Z,99.50
2022-09-05T00:42:09.951Z,99.60
2022-09-05T00:45:01.104Z,99.60
2022-09-05T00:48:01.213Z,99.60
2022-09-05T00:50:56.124Z,99.90
2022-09-05T00:53:52.281Z,99.90
2022-09-05T00:57:01.350Z,99.90
2022-09-05T01:00:02.785Z,99.90
2022-09-05T01:03:11.995Z,99.90
2022-09-05T01:06:17.611Z,99.90
2022-09-05T01:09:26.772Z,99.90
2022-09-05T01:12:24.773Z,99.90
2022-09-05T01:15:22.447Z,99.90
2022-09-05T01:18:29.202Z,99.90
2022-09-05T01:21:38.339Z,99.90
2022-09-05T01:24:45.138Z,99.90
2022-09-05T01:28:44.625Z,99.70
2022-09-05T01:31:03.712Z,99.50
2022-09-05T01:33:56.074Z,99.30
2022-09-05T01:37:05.237Z,99.00
2022-09-05T01:40:14.715Z,98.90
2022-09-05T01:43:17.781Z,99.00
2022-09-05T01:46:30.338Z,98.80
2022-09-05T01:49:18.485Z,98.60
2022-09-05T01:52:28.217Z,98.60
2022-09-05T01:58:29.809Z,98.40
2022-09-05T02:01:25.357Z,98.20
2022-09-05T02:04:32.910Z,98.00
2022-09-05T02:07:30.881Z,97.70
2022-09-05T02:10:30.149Z,97.80
2022-09-05T02:13:30.802Z,98.10
2022-09-05T02:16:24.451Z,97.70
2022-09-05T02:19:11.497Z,97.30
2022-09-05T02:21:56.192Z,97.20
2022-09-05T02:24:40.068Z,96.60
2022-09-05T02:27:43.596Z,96.40
2022-09-05T02:30:25.247Z,96.00
2022-09-05T02:33:12.831Z,95.50
2022-09-05T02:36:14.375Z,95.30
2022-09-05T02:40:06.193Z,95.20
2022-09-05T02:45:08.932Z,94.80
2022-09-05T02:45:25.803Z,94.10
2022-09-05T02:48:16.239Z,94.70
2022-09-05T02:57:29.659Z,94.80
2022-09-05T02:57:34.407Z,94.70
2022-09-05T02:58:08.092Z,94.80
2022-09-05T03:00:44.247Z,94.10
2022-09-05T03:03:40.037Z,93.60
2022-09-05T03:06:46.067Z,93.00
2022-09-05T03:09:46.376Z,93.80
2022-09-05T03:12:47.093Z,93.20
2022-09-05T03:15:49.967Z,92.70
2022-09-05T03:19:01.994Z,92.90
2022-09-05T03:22:24.260Z,93.10
2022-09-05T03:25:29.315Z,93.30
2022-09-05T03:28:38.206Z,93.10
2022-09-05T03:31:39.794Z,93.60
2022-09-05T03:34:41.325Z,92.70
2022-09-05T03:37:49.847Z,93.40
2022-09-05T03:40:57.727Z,92.10
2022-09-05T03:44:00.720Z,92.00
2022-09-05T03:46:55.650Z,92.10
2022-09-05T03:51:58.913Z,90.60
2022-09-05T03:57:14.835Z,91.70
2022-09-05T03:57:16.678Z,91.70
2022-09-05T03:59:51.256Z,90.40
2022-09-05T04:05:57.251Z,90.80
2022-09-05T04:08:17.422Z,90.80
2022-09-05T04:08:43.194Z,90.70
2022-09-05T04:11:30.677Z,90.10
2022-09-05T04:14:10.791Z,90.60
2022-09-05T04:16:58.518Z,90.40
2022-09-05T04:19:49.995Z,90.50
2022-09-05T04:22:54.658Z,89.20
2022-09-05T04:26:01.422Z,90.50
2022-09-05T04:29:25.767Z,90.30
2022-09-05T04:32:18.578Z,91.20
2022-09-05T04:35:06.287Z,91.70
2022-09-05T04:37:57.318Z,91.50
2022-09-05T04:40:44.012Z,91.10
2022-09-05T04:43:30.531Z,91.60
2022-09-05T04:46:30.144Z,91.60
2022-09-05T04:49:16.376Z,90.70
2022-09-05T04:52:11.245Z,90.40
2022-09-05T04:55:03.829Z,90.10
2022-09-05T04:57:51.574Z,90.20
2022-09-05T05:05:58.741Z,90.10
2022-09-05T05:06:08.726Z,90.50
2022-09-05T05:06:46.375Z,90.60
2022-09-05T05:09:30.127Z,90.20
2022-09-05T05:17:53.759Z,90.20
2022-09-05T05:18:12.508Z,90.20
2022-09-05T05:18:41.224Z,90.30
2022-09-05T05:21:22.385Z,89.90
2022-09-05T05:24:13.897Z,90.10
2022-09-05T05:26:57.089Z,89.40
2022-09-05T05:29:41.423Z,87.50
2022-09-05T05:32:31.596Z,88.50
2022-09-05T05:35:14.930Z,88.70
2022-09-05T05:37:52.953Z,89.40
2022-09-05T05:40:29.087Z,88.90
2022-09-05T05:43:18.591Z,87.60
2022-09-05T05:45:49.235Z,88.40
2022-09-05T05:48:35.352Z,87.50
2022-09-05T05:52:01.168Z,86.00
2022-09-05T05:55:34.008Z,86.10
2022-09-05T05:58:00.943Z,85.90
2022-09-05T06:01:21.972Z,84.70
2022-09-05T06:04:19.370Z,85.90
2022-09-05T06:07:28.148Z,85.70
2022-09-05T06:14:51.067Z,84.60
2022-09-05T06:15:05.030Z,84.70
2022-09-05T06:17:11.348Z,79.80
2022-09-05T06:21:56.690Z,83.90
2022-09-05T06:23:40.062Z,83.50
2022-09-05T06:26:36.617Z,83.60
2022-09-05T06:29:18.944Z,84.70
2022-09-05T06:32:18.334Z,86.20
2022-09-05T06:35:13.348Z,87.50
2022-09-05T06:38:10.172Z,88.80
2022-09-05T06:41:18.468Z,89.70
2022-09-05T06:44:19.389Z,89.80
2022-09-05T06:47:22.548Z,90.50
2022-09-05T06:50:26.847Z,91.10
2022-09-05T06:53:29.145Z,91.40
2022-09-05T06:56:25.850Z,91.20
2022-09-05T06:59:32.305Z,91.60
2022-09-05T07:02:14.484Z,91.60
2022-09-05T07:05:37.236Z,91.00
2022-09-05T07:08:09.354Z,90.50
2022-09-05T07:11:16.302Z,89.70
2022-09-05T07:14:26.328Z,88.50
2022-09-05T07:17:08.040Z,87.00
2022-09-05T07:19:59.584Z,88.10
2022-09-05T07:22:47.344Z,88.00
2022-09-05T07:25:26.425Z,88.30
2022-09-05T07:28:26.669Z,88.90
2022-09-05T07:31:09.502Z,89.40
2022-09-05T07:33:43.377Z,90.10
2022-09-05T07:36:22.100Z,90.30
2022-09-05T07:39:25.257Z,91.20
2022-09-05T07:41:55.566Z,91.80
2022-09-05T07:44:33.492Z,91.90
2022-09-05T07:47:18.866Z,92.30
2022-09-05T07:50:42.855Z,92.60
2022-09-05T07:56:47.440Z,92.50
2022-09-05T07:56:51.657Z,92.60
2022-09-05T07:58:43.922Z,92.20
2022-09-05T08:01:16.623Z,92.40
2022-09-05T08:03:47.234Z,92.40
2022-09-05T08:06:27.472Z,92.60
2022-09-05T08:10:05.844Z,92.70
2022-09-05T08:12:30.131Z,92.70
2022-09-05T08:15:25.098Z,92.20
2022-09-05T08:18:09.806Z,92.30
2022-09-05T08:21:00.006Z,91.80
2022-09-05T08:23:49.639Z,91.40
2022-09-05T08:26:44.052Z,90.80
2022-09-05T08:29:43.336Z,90.10
2022-09-05T08:32:35.473Z,90.40
2022-09-05T08:35:22.070Z,89.70
2022-09-05T08:37:53.639Z,90.40
2022-09-05T08:40:44.979Z,89.80
2022-09-05T08:46:36.944Z,88.30
2022-09-05T08:46:50.213Z,87.40
2022-09-05T08:49:44.022Z,86.70
2022-09-05T08:52:47.746Z,88.00
2022-09-05T08:55:47.554Z,89.10
2022-09-05T08:58:34.517Z,89.80
2022-09-05T09:02:14.673Z,87.70
2022-09-05T09:05:14.198Z,87.90
2022-09-05T09:08:02.493Z,85.40
2022-09-05T09:11:07.583Z,86.70
2022-09-05T09:14:29.483Z,83.90
2022-09-05T09:17:26.094Z,87.20
2022-09-05T09:20:14.962Z,87.70
2022-09-05T09:23:06.076Z,87.00
2022-09-05T09:25:48.614Z,88.30
2022-09-05T09:28:50.078Z,90.10
2022-09-05T09:31:39.266Z,88.60
2022-09-05T09:34:26.129Z,89.80
2022-09-05T09:37:19.865Z,89.70
2022-09-05T09:40:34.882Z,89.50
2022-09-05T09:43:19.818Z,90.00
2022-09-05T09:46:20.669Z,90.40
2022-09-05T09:49:22.566Z,90.20
2022-09-05T09:52:32.142Z,90.90
2022-09-05T09:55:43.066Z,91.10
2022-09-05T09:58:42.574Z,91.20
2022-09-05T10:01:37.178Z,91.20
2022-09-05T10:10:39.121Z,90.90
2022-09-05T10:10:49.592Z,90.80
2022-09-05T10:14:49.450Z,91.30
2022-09-05T10:17:54.746Z,90.50
2022-09-05T10:21:15.698Z,90.50
2022-09-05T10:24:24.049Z,91.20
2022-09-05T10:27:25.115Z,91.00
2022-09-05T10:30:13.865Z,90.90
2022-09-05T10:35:07.807Z,90.40
2022-09-05T10:36:26.857Z,90.30
2022-09-05T10:39:23.550Z,89.00
2022-09-05T10:42:04.458Z,89.30
2022-09-05T10:44:50.270Z,90.40
2022-09-05T10:47:58.010Z,90.20
2022-09-05T10:50:47.861Z,90.20
2022-09-05T10:53:39.036Z,90.50
2022-09-05T10:56:23.990Z,91.20
2022-09-05T11:00:58.034Z,91.30
2022-09-05T11:02:27.234Z,91.90
2022-09-05T11:05:28.823Z,92.10
2022-09-05T11:08:08.939Z,92.40
2022-09-05T11:10:56.583Z,92.20
2022-09-05T11:13:48.163Z,91.90
2022-09-05T11:16:41.107Z,91.80
2022-09-05T11:19:25.047Z,91.80
2022-09-05T11:22:22.105Z,92.10
2022-09-05T11:25:00.058Z,92.00
2022-09-05T11:27:39.347Z,92.00
2022-09-05T11:30:29.864Z,91.80
2022-09-05T11:39:47.981Z,91.70
2022-09-05T11:39:57.507Z,92.00
2022-09-05T11:40:31.497Z,92.40
2022-09-05T11:43:32.492Z,92.50
2022-09-05T11:46:33.613Z,92.60
2022-09-05T11:49:34.523Z,92.60
2022-09-05T11:52:43.040Z,92.60
2022-09-05T11:55:44.727Z,92.80
2022-09-05T11:58:44.908Z,92.80
2022-09-05T12:01:41.679Z,93.20
2022-09-05T12:04:45.776Z,93.30
2022-09-05T12:07:50.062Z,93.10
2022-09-05T12:10:46.240Z,92.70
2022-09-05T12:13:42.624Z,92.90
2022-09-05T12:16:40.787Z,92.90
2022-09-05T12:19:39.570Z,93.00
2022-09-05T12:22:35.665Z,92.90
2022-09-05T12:27:36.663Z,93.20
2022-09-05T12:29:27.902Z,93.50
2022-09-05T12:32:36.413Z,94.00
2022-09-05T12:36:07.866Z,94.00
2022-09-05T12:40:25.476Z,94.10
2022-09-05T12:41:36.612Z,94.20
2022-09-05T12:44:36.381Z,94.30
2022-09-05T12:46:10.951Z,94.50
2022-09-05T12:49:06.988Z,94.60
2022-09-05T12:51:47.716Z,94.70
2022-09-05T12:54:35.885Z,94.80
2022-09-05T13:02:56.639Z,94.70
2022-09-05T13:03:09.051Z,94.90
2022-09-05T13:03:35.684Z,94.90
2022-09-05T13:06:24.759Z,95.00
2022-09-05T13:09:13.016Z,95.20
2022-09-05T13:14:56.693Z,95.10
2022-09-05T13:15:23.318Z,95.50
2022-09-05T13:18:05.918Z,95.50
2022-09-05T13:20:41.358Z,95.20
2022-09-05T13:23:32.734Z,95.50
2022-09-05T13:26:28.474Z,95.10
2022-09-05T13:29:11.023Z,95.30
2022-09-05T13:37:58.528Z,95.40
2022-09-05T13:38:17.892Z,95.50
2022-09-05T13:38:28.870Z,95.70
2022-09-05T13:40:52.778Z,95.40
2022-09-05T13:43:40.300Z,95.60
2022-09-05T13:46:26.807Z,95.50
2022-09-05T13:49:27.699Z,94.80
2022-09-05T13:52:28.012Z,95.00
2022-09-05T13:55:35.589Z,95.50
2022-09-05T13:58:14.191Z,95.90
2022-09-05T14:01:20.068Z,95.90
2022-09-05T14:07:46.272Z,96.00
2022-09-05T14:10:39.546Z,96.00
2022-09-05T14:13:27.224Z,95.80
2022-09-05T14:16:14.225Z,95.70
2022-09-05T14:18:59.979Z,95.70
2022-09-05T14:21:33.928Z,95.90
2022-09-05T14:24:22.017Z,96.10
2022-09-05T14:27:31.849Z,96.20
2022-09-05T14:30:44.275Z,96.20
2022-09-05T14:37:36.685Z,96.10
2022-09-05T14:37:45.591Z,96.20
2022-09-05T14:40:06.645Z,96.30
2022-09-05T14:43:26.823Z,96.20
2022-09-05T14:46:33.667Z,96.40
2022-09-05T14:49:34.048Z,96.40
2022-09-05T14:52:35.553Z,96.30
2022-09-05T14:55:20.440Z,96.40
2022-09-05T15:02:54.234Z,96.50
2022-09-05T15:02:57.751Z,96.50
2022-09-05T15:06:44.317Z,96.30
2022-09-05T15:12:14.375Z,96.10
2022-09-05T15:12:38.581Z,96.00
2022-09-05T15:15:21.186Z,96.00
2022-09-05T15:17:55.297Z,96.10
2022-09-05T15:20:38.760Z,96.10
2022-09-05T15:23:17.834Z,96.00
2022-09-05T15:26:25.790Z,95.90
2022-09-05T15:29:13.613Z,95.70
2022-09-05T15:31:45.092Z,95.90
2022-09-05T15:34:28.656Z,96.00
2022-09-05T15:37:09.271Z,96.10
2022-09-05T15:39:50.112Z,96.10
2022-09-05T15:42:26.158Z,96.20
2022-09-05T15:45:11.064Z,96.30
2022-09-05T15:47:47.516Z,96.40
2022-09-05T15:50:23.027Z,96.50
2022-09-05T15:52:56.217Z,96.50
2022-09-05T15:55:28.865Z,96.70
2022-09-05T15:58:04.423Z,96.70
2022-09-05T16:00:46.158Z,96.90
2022-09-05T16:05:16.371Z,97.00
2022-09-05T16:10:36.900Z,96.90
2022-09-05T16:10:43.466Z,96.90
2022-09-05T16:12:47.425Z,96.80
2022-09-05T16:17:36.375Z,96.80
2022-09-05T16:23:17.780Z,96.90
2022-09-05T16:23:26.371Z,96.80
2022-09-05T16:24:34.886Z,96.80
2022-09-05T16:27:16.556Z,96.90
2022-09-05T16:29:50.573Z,96.90
2022-09-05T16:32:28.007Z,97.00
2022-09-05T16:35:02.066Z,96.80
2022-09-05T16:37:42.855Z,96.70
2022-09-05T16:40:25.579Z,96.70
2022-09-05T16:43:20.227Z,96.60
2022-09-05T16:46:18.029Z,96.50
2022-09-05T16:49:16.628Z,96.40
2022-09-05T16:51:50.571Z,96.30
2022-09-05T16:54:48.540Z,96.10
2022-09-05T16:57:32.880Z,96.10
2022-09-05T17:00:04.373Z,96.10
2022-09-05T17:03:03.366Z,96.30
2022-09-05T17:05:49.125Z,96.20
2022-09-05T17:08:31.851Z,96.40
2022-09-05T17:11:13.864Z,96.60
2022-09-05T17:14:00.649Z,96.60
2022-09-05T17:16:44.707Z,97.00
2022-09-05T17:19:40.384Z,97.10
2022-09-05T17:27:53.887Z,97.30
2022-09-05T17:29:26.138Z,97.20
2022-09-05T17:29:28.936Z,97.20
2022-09-05T17:31:56.144Z,97.30
2022-09-05T17:34:49.292Z,97.30
2022-09-05T17:38:08.007Z,97.50
2022-09-05T17:41:13.441Z,97.60
2022-09-05T17:43:44.699Z,97.60
2022-09-05T17:46:28.409Z,97.70
2022-09-05T17:49:17.605Z,97.70
2022-09-05T17:52:20.165Z,97.70
2022-09-05T17:54:54.581Z,98.00
2022-09-05T17:57:37.534Z,97.60
2022-09-05T18:00:47.616Z,97.30
2022-09-05T18:04:16.436Z,97.40
2022-09-05T18:06:54.096Z,97.40
2022-09-05T18:10:05.967Z,97.50
2022-09-05T18:13:12.957Z,97.60
2022-09-05T18:16:14.683Z,97.60
2022-09-05T18:19:28.028Z,97.70
2022-09-05T18:22:08.525Z,97.70
2022-09-05T18:25:13.883Z,97.60
2022-09-05T18:28:09.205Z,97.60
2022-09-05T18:30:40.236Z,97.50
2022-09-05T18:33:53.910Z,97.60
2022-09-05T18:36:35.468Z,97.70
2022-09-05T18:39:40.043Z,97.80
2022-09-05T18:42:25.867Z,97.80
2022-09-05T18:45:16.152Z,97.80
2022-09-05T18:47:57.311Z,97.80
2022-09-05T18:50:36.371Z,97.70
2022-09-05T18:53:13.080Z,97.60
2022-09-05T18:56:10.699Z,97.60
2022-09-05T18:59:10.271Z,97.60
2022-09-05T19:02:06.065Z,97.50
2022-09-05T19:04:53.452Z,97.40
2022-09-05T19:07:34.394Z,97.50
2022-09-05T19:10:36.012Z,97.70
2022-09-05T19:13:23.688Z,97.60
2022-09-05T19:16:34.976Z,97.50
2022-09-05T19:19:17.715Z,97.40
2022-09-05T19:23:08.031Z,97.20
2022-09-05T19:24:55.081Z,97.30
2022-09-05T19:47:36.824Z,99.90
2022-09-05T19:47:38.545Z,99.90
2022-09-05T19:48:29.312Z,99.70
2022-09-05T19:51:21.442Z,98.90
2022-09-05T19:54:04.630Z,98.20
2022-09-05T19:56:49.319Z,97.60
2022-09-05T19:59:25.188Z,97.50
2022-09-05T20:01:56.528Z,97.20
2022-09-05T20:04:29.001Z,97.20
2022-09-05T20:06:59.420Z,97.10
2022-09-05T20:09:30.155Z,97.00
2022-09-05T20:12:01.928Z,96.90
2022-09-05T20:14:37.863Z,96.90
2022-09-05T20:17:25.227Z,97.00
2022-09-05T20:20:15.135Z,97.00
2022-09-05T20:22:50.181Z,96.90
2022-09-05T20:25:42.983Z,96.80
2022-09-05T20:28:18.102Z,96.90
2022-09-05T20:30:53.195Z,96.80
2022-09-05T20:33:42.219Z,97.10
2022-09-05T20:40:32.393Z,97.30
2022-09-05T20:43:22.463Z,97.40
2022-09-05T20:43:35.265Z,97.30
2022-09-05T20:45:06.047Z,97.30
2022-09-05T20:53:17.382Z,97.40
2022-09-05T20:54:13.743Z,97.40
2022-09-05T20:54:15.239Z,97.50
2022-09-05T20:56:35.295Z,97.50
2022-09-05T20:59:05.709Z,97.70
2022-09-05T21:01:39.962Z,97.80
2022-09-05T21:04:10.701Z,97.90
2022-09-05T21:06:43.424Z,98.10
2022-09-05T21:09:31.346Z,98.00
2022-09-05T21:12:13.546Z,98.00
2022-09-05T21:15:25.574Z,98.00
2022-09-05T21:18:03.957Z,98.00
2022-09-05T21:20:34.680Z,98.00
2022-09-05T21:23:24.341Z,98.20
2022-09-05T21:25:57.832Z,98.20
2022-09-05T21:28:36.765Z,98.20
2022-09-05T21:31:16.169Z,98.20
2022-09-05T21:33:47.759Z,98.30
2022-09-05T21:36:18.890Z,98.30
2022-09-05T21:38:49.180Z,98.40
2022-09-05T21:41:20.045Z,98.40
2022-09-05T21:47:47.404Z,98.30
2022-09-05T21:47:48.294Z,98.40
2022-09-05T21:49:35.573Z,98.30
2022-09-05T21:52:10.209Z,98.30
2022-09-05T21:59:18.986Z,98.30
2022-09-05T21:59:21.321Z,98.20
2022-09-05T22:00:27.432Z,98.20
2022-09-05T22:02:57.997Z,98.10
2022-09-05T22:05:29.584Z,98.20
2022-09-05T22:08:02.512Z,98.30
2022-09-05T22:10:45.358Z,98.10
2022-09-05T22:13:22.940Z,98.00
2022-09-05T22:15:53.948Z,98.00
2022-09-05T22:18:24.319Z,98.00
2022-09-05T22:21:33.894Z,97.90
2022-09-05T22:23:49.027Z,97.90
2022-09-05T22:26:21.199Z,98.20
2022-09-05T22:28:52.033Z,98.20
2022-09-05T22:31:23.737Z,98.30
2022-09-05T22:33:54.168Z,98.30
2022-09-05T22:36:24.741Z,98.20
2022-09-05T22:38:56.731Z,98.30
2022-09-05T22:41:30.267Z,98.40
2022-09-05T22:44:01.559Z,98.20
2022-09-05T22:46:32.689Z,98.10
2022-09-05T22:49:03.177Z,98.20
2022-09-05T22:51:33.422Z,98.10
2022-09-05T22:54:06.428Z,97.90
2022-09-05T22:56:40.083Z,97.90
2022-09-05T22:59:13.059Z,98.00
2022-09-05T23:01:43.627Z,98.00
2022-09-05T23:04:14.038Z,98.10
2022-09-05T23:06:44.449Z,98.20
2022-09-05T23:09:14.804Z,98.10
2022-09-05T23:11:45.217Z,98.10
2022-09-05T23:14:15.536Z,97.90
2022-09-05T23:16:45.851Z,98.00
2022-09-05T23:19:16.247Z,97.90
2022-09-05T23:21:46.497Z,98.00
2022-09-05T23:24:16.919Z,98.10
2022-09-05T23:26:47.173Z,98.00
2022-09-05T23:29:17.637Z,98.30
2022-09-05T23:31:48.441Z,98.50
2022-09-05T23:34:19.203Z,98.50
2022-09-05T23:36:49.574Z,98.40
2022-09-05T23:39:19.866Z,98.50
2022-09-05T23:41:50.123Z,98.20
2022-09-05T23:44:20.608Z,98.10
2022-09-05T23:46:50.993Z,98.20
2022-09-05T23:49:22.261Z,98.40
2022-09-05T23:51:52.659Z,98.30
2022-09-05T23:54:23.092Z,98.20
2022-09-05T23:56:53.616Z,98.10
2022-09-05T23:59:24.286Z,98.00
